createdAt,value
2023-02-15T00:00:16.990Z,4.60
2023-02-15T00:02:44.902Z,4.60
2023-02-15T00:05:12.787Z,4.60
2023-02-15T00:07:40.762Z,4.50
2023-02-15T00:10:10.415Z,4.50
2023-02-15T00:12:38.600Z,4.40
2023-02-15T00:15:07.040Z,4.30
2023-02-15T00:17:36.238Z,4.20
2023-02-15T00:20:04.407Z,4.20
2023-02-15T00:22:32.333Z,4.20
2023-02-15T00:25:00.192Z,4.10
2023-02-15T00:27:28.058Z,4.10
2023-02-15T00:29:56.733Z,2.80
2023-02-15T00:32:24.663Z,4.20
2023-02-15T00:34:54.037Z,4.20
2023-02-15T00:37:21.914Z,4.20
2023-02-15T00:39:49.777Z,4.20
2023-02-15T00:42:18.836Z,4.10
2023-02-15T00:44:46.836Z,4.10
2023-02-15T00:47:14.715Z,4.00
2023-02-15T00:49:42.915Z,4.00
2023-02-15T00:52:12.557Z,3.90
2023-02-15T00:54:40.602Z,3.80
2023-02-15T00:57:08.841Z,3.30
2023-02-15T00:59:36.705Z,3.80
2023-02-15T01:02:04.920Z,3.80
2023-02-15T01:04:33.371Z,3.80
2023-02-15T01:07:02.855Z,3.80
2023-02-15T01:09:33.340Z,3.80
2023-02-15T01:12:01.213Z,3.70
2023-02-15T01:14:29.261Z,3.60
2023-02-15T01:16:57.452Z,3.60
2023-02-15T01:19:25.338Z,3.60
2023-02-15T01:21:53.523Z,3.60
2023-02-15T01:24:21.401Z,3.60
2023-02-15T01:26:50.614Z,3.70
2023-02-15T01:29:18.485Z,3.70
2023-02-15T01:31:46.477Z,3.70
2023-02-15T01:34:16.267Z,3.70
2023-02-15T01:36:44.160Z,3.60
2023-02-15T01:39:12.323Z,3.60
2023-02-15T01:41:40.227Z,3.50
2023-02-15T01:45:01.856Z,3.50
2023-02-15T01:47:39.022Z,3.40
2023-02-15T01:50:17.132Z,3.40
2023-02-15T01:52:53.775Z,3.30
2023-02-15T01:55:25.657Z,3.30
2023-02-15T01:57:53.785Z,3.30
2023-02-15T02:00:22.615Z,3.20
2023-02-15T02:02:57.536Z,3.20
2023-02-15T02:05:27.827Z,3.20
2023-02-15T02:08:00.428Z,3.20
2023-02-15T02:10:28.820Z,3.20
2023-02-15T02:13:05.160Z,3.20
2023-02-15T02:15:44.301Z,3.20
2023-02-15T02:18:37.724Z,3.10
2023-02-15T02:21:52.324Z,3.10
2023-02-15T02:25:13.888Z,3.20
2023-02-15T02:27:49.467Z,3.20
2023-02-15T02:30:47.507Z,3.20
2023-02-15T02:33:53.588Z,3.20
2023-02-15T02:36:35.820Z,3.20
2023-02-15T02:39:21.801Z,3.20
2023-02-15T02:42:02.796Z,3.20
2023-02-15T02:44:44.806Z,3.20
2023-02-15T02:47:21.395Z,3.20
2023-02-15T02:49:59.885Z,3.20
2023-02-15T02:52:40.234Z,3.10
2023-02-15T02:55:14.956Z,3.10
2023-02-15T02:57:54.041Z,3.10
2023-02-15T03:00:25.300Z,3.00
2023-02-15T03:03:05.843Z,3.10
2023-02-15T03:05:42.356Z,3.10
2023-02-15T03:08:12.804Z,3.10
2023-02-15T03:10:43.183Z,3.10
2023-02-15T03:13:11.237Z,3.20
2023-02-15T03:16:01.593Z,3.30
2023-02-15T03:18:37.984Z,3.30
2023-02-15T03:21:22.909Z,3.30
2023-02-15T03:23:55.739Z,3.30
2023-02-15T03:26:28.835Z,3.30
2023-02-15T03:29:04.427Z,3.30
2023-02-15T03:31:38.621Z,3.30
2023-02-15T03:34:12.598Z,3.30
2023-02-15T03:36:54.180Z,3.40
2023-02-15T03:39:31.978Z,3.50
2023-02-15T03:42:10.563Z,3.50
2023-02-15T03:44:52.882Z,3.50
2023-02-15T03:47:27.729Z,3.60
2023-02-15T03:50:02.877Z,3.60
2023-02-15T03:52:33.830Z,3.50
2023-02-15T03:55:01.884Z,3.50
2023-02-15T03:57:48.941Z,3.50
2023-02-15T04:00:42.329Z,3.40
2023-02-15T04:03:24.782Z,3.40
2023-02-15T04:05:52.745Z,3.30
2023-02-15T04:08:41.987Z,3.30
2023-02-15T04:11:08.995Z,3.30
2023-02-15T04:13:36.932Z,3.20
2023-02-15T04:16:05.361Z,3.20
2023-02-15T04:18:53.922Z,3.20
2023-02-15T04:21:41.593Z,3.20
2023-02-15T04:24:29.430Z,3.20
2023-02-15T04:26:57.799Z,3.30
2023-02-15T04:29:27.740Z,3.40
2023-02-15T04:32:01.527Z,3.50
2023-02-15T04:34:29.788Z,3.40
2023-02-15T04:36:57.716Z,3.40
2023-02-15T04:39:26.924Z,3.30
2023-02-15T04:41:54.846Z,3.20
2023-02-15T04:44:22.728Z,3.20
2023-02-15T04:46:50.599Z,3.20
2023-02-15T04:49:18.487Z,3.40
2023-02-15T04:51:46.366Z,3.40
2023-02-15T04:54:14.298Z,3.30
2023-02-15T04:56:44.436Z,3.20
2023-02-15T04:59:12.930Z,3.20
2023-02-15T05:01:40.849Z,3.20
2023-02-15T05:04:08.823Z,3.20
2023-02-15T05:06:37.199Z,3.20
2023-02-15T05:09:05.745Z,3.30
2023-02-15T05:11:33.888Z,3.30
2023-02-15T05:14:03.192Z,3.30
2023-02-15T05:16:31.157Z,3.20
2023-02-15T05:18:59.473Z,3.10
2023-02-15T05:21:27.633Z,3.00
2023-02-15T05:23:55.625Z,3.00
2023-02-15T05:26:44.111Z,3.00
2023-02-15T05:29:16.117Z,3.00
2023-02-15T05:31:48.157Z,2.90
2023-02-15T05:34:18.942Z,3.00
2023-02-15T05:36:46.795Z,3.00
2023-02-15T05:39:14.674Z,3.00
2023-02-15T05:41:42.528Z,3.00
2023-02-15T05:44:10.409Z,2.90
2023-02-15T05:46:39.596Z,2.90
2023-02-15T05:49:07.566Z,2.90
2023-02-15T05:51:35.441Z,2.90
2023-02-15T05:54:03.321Z,2.80
2023-02-15T05:56:31.178Z,2.80
2023-02-15T05:58:59.344Z,2.80
2023-02-15T06:01:27.561Z,2.80
2023-02-15T06:03:57.172Z,2.70
2023-02-15T06:06:25.080Z,2.80
2023-02-15T06:08:52.959Z,2.80
2023-02-15T06:11:20.860Z,2.80
2023-02-15T06:13:48.803Z,2.90
2023-02-15T06:16:17.159Z,2.80
2023-02-15T06:18:45.347Z,2.80
2023-02-15T06:21:15.148Z,2.70
2023-02-15T06:23:44.074Z,2.80
2023-02-15T06:26:11.935Z,2.80
2023-02-15T06:28:39.832Z,2.80
2023-02-15T06:31:07.858Z,2.90
2023-02-15T06:33:35.837Z,3.00
2023-02-15T06:36:04.776Z,3.10
2023-02-15T06:38:34.625Z,3.20
2023-02-15T06:41:02.622Z,3.30
2023-02-15T06:43:30.609Z,3.40
2023-02-15T06:45:58.603Z,3.50
2023-02-15T06:48:26.524Z,3.60
2023-02-15T06:50:54.482Z,3.60
2023-02-15T06:53:22.410Z,3.60
2023-02-15T06:55:51.623Z,3.70
2023-02-15T06:58:19.519Z,3.80
2023-02-15T07:00:47.484Z,3.90
2023-02-15T07:03:16.464Z,4.00
2023-02-15T07:05:44.599Z,4.30
2023-02-15T07:08:12.507Z,4.70
2023-02-15T07:10:40.424Z,5.10
2023-02-15T07:13:08.841Z,5.50
2023-02-15T07:15:36.731Z,5.90
2023-02-15T07:18:06.079Z,6.50
2023-02-15T07:20:36.105Z,6.80
2023-02-15T07:23:05.844Z,7.30
2023-02-15T07:25:33.789Z,7.80
2023-02-15T07:28:04.785Z,8.10
2023-02-15T07:30:34.569Z,8.60
2023-02-15T07:33:19.935Z,9.10
2023-02-15T07:35:52.378Z,9.10
2023-02-15T07:38:20.983Z,9.30
2023-02-15T07:40:49.248Z,9.30
2023-02-15T07:43:17.458Z,9.40
2023-02-15T07:45:46.690Z,9.70
2023-02-15T07:48:14.564Z,9.90
2023-02-15T07:50:42.454Z,10.30
2023-02-15T07:53:10.724Z,10.20
2023-02-15T07:55:38.637Z,10.60
2023-02-15T07:58:06.566Z,11.10
2023-02-15T08:00:54.444Z,11.40
2023-02-15T08:03:27.603Z,11.80
2023-02-15T08:06:00.346Z,12.10
2023-02-15T08:08:32.154Z,12.50
2023-02-15T08:11:19.890Z,12.80
2023-02-15T08:13:55.400Z,13.00
2023-02-15T08:16:25.915Z,13.10
2023-02-15T08:18:55.831Z,13.40
2023-02-15T08:21:25.105Z,13.40
2023-02-15T08:23:53.974Z,13.30
2023-02-15T08:26:21.924Z,13.20
2023-02-15T08:28:51.075Z,12.90
2023-02-15T08:31:19.780Z,13.20
2023-02-15T08:33:49.891Z,13.70
2023-02-15T08:36:21.736Z,14.10
2023-02-15T08:38:50.232Z,14.30
2023-02-15T08:41:21.446Z,14.60
2023-02-15T08:43:54.585Z,14.70
2023-02-15T08:46:24.440Z,14.80
2023-02-15T08:48:52.891Z,15.00
2023-02-15T08:51:25.364Z,15.20
2023-02-15T08:53:56.948Z,15.60
2023-02-15T08:56:28.581Z,16.00
2023-02-15T08:58:57.326Z,16.40
2023-02-15T09:01:27.896Z,16.50
2023-02-15T09:03:59.538Z,16.50
2023-02-15T09:06:31.006Z,16.50
2023-02-15T09:08:59.334Z,16.60
2023-02-15T09:11:30.581Z,16.60
2023-02-15T09:14:01.512Z,16.90
2023-02-15T09:16:32.563Z,17.00
2023-02-15T09:19:02.155Z,17.00
2023-02-15T09:21:31.457Z,17.00
2023-02-15T09:24:02.033Z,17.10
2023-02-15T09:26:32.619Z,17.30
2023-02-15T09:29:04.351Z,17.40
2023-02-15T09:31:35.516Z,17.30
2023-02-15T09:34:03.668Z,17.30
2023-02-15T09:36:35.820Z,17.20
2023-02-15T09:39:10.184Z,17.20
2023-02-15T09:42:32.886Z,17.50
2023-02-15T09:45:22.621Z,17.70
2023-02-15T09:48:28.524Z,18.00
2023-02-15T09:51:34.162Z,18.20
2023-02-15T09:54:24.568Z,18.50
2023-02-15T09:57:02.500Z,18.60
2023-02-15T09:59:43.730Z,18.40
2023-02-15T10:02:36.854Z,18.00
2023-02-15T10:05:23.990Z,17.70
2023-02-15T10:08:23.049Z,17.70
2023-02-15T10:11:24.565Z,17.90
2023-02-15T10:14:12.877Z,18.00
2023-02-15T10:16:53.285Z,18.00
2023-02-15T10:19:37.462Z,17.90
2023-02-15T10:22:23.960Z,17.80
2023-02-15T10:25:18.060Z,17.70
2023-02-15T10:27:51.301Z,17.50
2023-02-15T10:30:32.522Z,17.30
2023-02-15T10:33:03.937Z,17.00
2023-02-15T10:35:49.265Z,16.50
2023-02-15T10:38:33.588Z,16.00
2023-02-15T10:41:17.675Z,15.70
2023-02-15T10:44:07.898Z,15.60
2023-02-15T10:46:57.814Z,15.40
2023-02-15T10:50:03.772Z,15.30
2023-02-15T10:52:52.407Z,15.40
2023-02-15T10:55:43.033Z,15.40
2023-02-15T10:58:26.618Z,15.40
2023-02-15T11:01:09.934Z,15.40
2023-02-15T11:04:07.514Z,15.20
2023-02-15T11:06:42.997Z,15.10
2023-02-15T11:09:16.515Z,14.90
2023-02-15T11:11:52.159Z,14.50
2023-02-15T11:14:30.117Z,14.60
2023-02-15T11:17:09.245Z,14.50
2023-02-15T11:19:44.728Z,14.50
2023-02-15T11:22:13.736Z,14.40
2023-02-15T11:24:47.192Z,14.20
2023-02-15T11:27:23.388Z,14.20
2023-02-15T11:30:01.470Z,14.30
2023-02-15T11:32:35.765Z,14.60
2023-02-15T11:35:19.830Z,14.80
2023-02-15T11:37:52.479Z,14.80
2023-02-15T11:40:26.237Z,14.80
2023-02-15T11:42:58.583Z,15.00
2023-02-15T11:45:31.666Z,15.00
2023-02-15T11:48:03.268Z,14.90
2023-02-15T11:50:34.686Z,14.90
2023-02-15T11:53:08.074Z,14.90
2023-02-15T11:55:36.269Z,14.80
2023-02-15T11:58:16.820Z,14.70
2023-02-15T12:00:48.822Z,14.50
2023-02-15T12:03:29.275Z,14.30
2023-02-15T12:06:04.341Z,14.10
2023-02-15T12:08:40.799Z,14.00
2023-02-15T12:11:13.787Z,13.80
2023-02-15T12:13:58.146Z,13.50
2023-02-15T12:16:28.349Z,13.20
2023-02-15T12:19:01.254Z,13.00
2023-02-15T12:21:35.300Z,13.10
2023-02-15T12:24:17.258Z,13.10
2023-02-15T12:26:46.139Z,13.20
2023-02-15T12:29:21.626Z,13.10
2023-02-15T12:31:53.902Z,12.90
2023-02-15T12:34:27.525Z,12.90
2023-02-15T12:37:01.220Z,13.00
2023-02-15T12:39:31.440Z,12.90
2023-02-15T12:42:05.560Z,13.00
2023-02-15T12:44:35.468Z,13.10
2023-02-15T12:47:06.720Z,12.90
2023-02-15T12:49:37.988Z,12.90
2023-02-15T12:52:24.582Z,12.80
2023-02-15T12:54:53.946Z,12.90
2023-02-15T12:57:29.155Z,13.00
2023-02-15T13:00:00.498Z,12.90
2023-02-15T13:02:37.318Z,13.00
2023-02-15T13:05:24.535Z,13.00
2023-02-15T13:07:58.129Z,13.00
2023-02-15T13:10:31.346Z,13.00
2023-02-15T13:13:00.119Z,13.00
2023-02-15T13:15:36.797Z,13.00
2023-02-15T13:18:12.311Z,13.00
2023-02-15T13:20:46.050Z,13.00
2023-02-15T13:23:28.328Z,13.00
2023-02-15T13:26:01.342Z,12.90
2023-02-15T13:28:42.865Z,12.90
2023-02-15T13:31:16.510Z,12.80
2023-02-15T13:33:50.272Z,12.90
2023-02-15T13:36:33.769Z,12.90
2023-02-15T13:39:17.364Z,12.90
2023-02-15T13:42:00.375Z,12.80
2023-02-15T13:44:54.684Z,12.90
2023-02-15T13:47:32.521Z,12.90
2023-02-15T13:50:36.609Z,12.90
2023-02-15T13:53:26.470Z,12.90
2023-02-15T13:56:00.555Z,12.80
2023-02-15T13:59:06.896Z,12.70
2023-02-15T14:01:47.456Z,12.70
2023-02-15T14:04:50.695Z,12.70
2023-02-15T14:07:58.208Z,12.70
2023-02-15T14:10:48.107Z,12.50
2023-02-15T14:13:57.848Z,12.40
2023-02-15T14:16:41.243Z,12.30
2023-02-15T14:19:26.442Z,12.30
2023-02-15T14:22:03.513Z,12.30
2023-02-15T14:24:44.190Z,12.40
2023-02-15T14:27:28.969Z,12.40
2023-02-15T14:30:01.299Z,12.40
2023-02-15T14:32:37.572Z,12.50
2023-02-15T14:35:14.434Z,12.50
2023-02-15T14:37:52.024Z,12.50
2023-02-15T14:40:54.459Z,12.40
2023-02-15T14:43:39.163Z,12.40
2023-02-15T14:46:22.120Z,12.50
2023-02-15T14:48:55.315Z,12.50
2023-02-15T14:52:01.481Z,12.40
2023-02-15T14:54:57.831Z,12.30
2023-02-15T14:57:36.238Z,12.20
2023-02-15T15:00:39.929Z,12.10
2023-02-15T15:03:22.443Z,11.90
2023-02-15T15:05:55.364Z,11.80
2023-02-15T15:08:36.263Z,11.60
2023-02-15T15:11:50.593Z,11.60
2023-02-15T15:14:45.156Z,11.60
2023-02-15T15:17:54.477Z,11.50
2023-02-15T15:20:51.671Z,11.40
2023-02-15T15:23:46.441Z,11.20
2023-02-15T15:26:30.842Z,11.20
2023-02-15T15:29:03.992Z,11.10
2023-02-15T15:31:49.915Z,11.10
2023-02-15T15:34:49.450Z,11.00
2023-02-15T15:38:06.539Z,10.90
2023-02-15T15:41:19.640Z,10.80
2023-02-15T15:44:43.153Z,10.70
2023-02-15T15:47:37.131Z,10.60
2023-02-15T15:50:15.949Z,10.40
2023-02-15T15:52:51.013Z,10.40
2023-02-15T15:55:24.860Z,10.30
2023-02-15T15:57:57.763Z,10.20
2023-02-15T16:00:37.154Z,10.10
2023-02-15T16:03:05.717Z,10.00
2023-02-15T16:05:39.265Z,9.90
2023-02-15T16:08:07.884Z,9.80
2023-02-15T16:10:38.858Z,9.70
2023-02-15T16:13:08.656Z,9.60
2023-02-15T16:15:46.352Z,9.50
2023-02-15T16:18:19.093Z,9.30
2023-02-15T16:20:56.092Z,9.30
2023-02-15T16:24:01.068Z,9.30
2023-02-15T16:26:54.499Z,9.20
2023-02-15T16:29:31.596Z,9.10
2023-02-15T16:32:06.700Z,9.00
2023-02-15T16:34:34.908Z,8.90
2023-02-15T16:37:18.848Z,8.80
2023-02-15T16:39:49.085Z,8.70
2023-02-15T16:42:18.729Z,8.60
2023-02-15T16:44:50.080Z,8.50
2023-02-15T16:47:25.560Z,8.40
2023-02-15T16:49:58.236Z,8.30
2023-02-15T16:52:30.197Z,8.20
2023-02-15T16:55:01.299Z,8.20
2023-02-15T16:57:35.262Z,8.10
2023-02-15T17:00:08.198Z,8.00
2023-02-15T17:02:55.160Z,7.90
2023-02-15T17:05:24.892Z,7.90
2023-02-15T17:08:15.660Z,7.80
2023-02-15T17:10:47.976Z,7.70
2023-02-15T17:13:18.255Z,7.70
2023-02-15T17:16:24.559Z,7.50
2023-02-15T17:18:54.718Z,7.40
2023-02-15T17:21:27.623Z,7.40
2023-02-15T17:24:01.837Z,7.30
2023-02-15T17:26:34.840Z,7.30
2023-02-15T17:29:25.969Z,7.20
2023-02-15T17:31:59.421Z,7.10
2023-02-15T17:34:58.834Z,7.10
2023-02-15T17:37:43.189Z,7.00
2023-02-15T17:40:26.599Z,6.90
2023-02-15T17:42:55.291Z,6.80
2023-02-15T17:45:26.959Z,6.80
2023-02-15T17:47:55.269Z,6.70
2023-02-15T17:50:26.913Z,6.70
2023-02-15T17:52:57.872Z,6.70
2023-02-15T17:55:35.392Z,6.60
2023-02-15T17:58:05.851Z,6.60
2023-02-15T18:00:54.661Z,6.60
2023-02-15T18:03:40.647Z,6.60
2023-02-15T18:06:26.643Z,6.70
2023-02-15T18:09:12.749Z,6.80
2023-02-15T18:11:42.434Z,6.90
2023-02-15T18:14:11.935Z,6.90
2023-02-15T18:16:45.519Z,7.00
2023-02-15T18:19:18.761Z,6.90
2023-02-15T18:21:48.080Z,7.00
2023-02-15T18:24:20.133Z,7.10
2023-02-15T18:26:49.654Z,7.20
2023-02-15T18:29:17.873Z,7.20
2023-02-15T18:31:52.399Z,7.20
2023-02-15T18:34:27.901Z,7.20
2023-02-15T18:36:56.328Z,7.30
2023-02-15T18:39:40.075Z,7.30
2023-02-15T18:42:22.449Z,7.30
2023-02-15T18:44:54.413Z,7.30
2023-02-15T18:47:22.391Z,7.20
2023-02-15T18:49:50.350Z,7.10
2023-02-15T18:52:21.765Z,7.30
2023-02-15T18:54:56.140Z,7.20
2023-02-15T18:57:25.726Z,7.10
2023-02-15T18:59:53.624Z,7.20
2023-02-15T19:02:21.563Z,7.20
2023-02-15T19:04:49.500Z,7.30
2023-02-15T19:07:22.479Z,7.30
2023-02-15T19:09:55.661Z,7.30
2023-02-15T19:12:25.399Z,7.30
2023-02-15T19:14:53.287Z,7.30
2023-02-15T19:17:23.818Z,7.20
2023-02-15T19:19:53.822Z,7.20
2023-02-15T19:22:27.765Z,7.10
2023-02-15T19:24:58.945Z,7.20
2023-02-15T19:27:32.416Z,7.20
2023-02-15T19:30:02.989Z,7.20
2023-02-15T19:32:31.398Z,7.30
2023-02-15T19:34:59.247Z,7.20
2023-02-15T19:37:35.539Z,7.30
2023-02-15T19:40:04.064Z,7.30
2023-02-15T19:42:34.658Z,7.40
2023-02-15T19:45:02.574Z,7.40
2023-02-15T19:47:30.552Z,7.40
2023-02-15T19:50:03.386Z,7.30
2023-02-15T19:52:31.303Z,7.30
2023-02-15T19:54:59.297Z,7.20
2023-02-15T19:57:27.806Z,7.30
2023-02-15T19:59:57.084Z,7.30
2023-02-15T20:02:24.939Z,7.50
2023-02-15T20:04:52.877Z,7.60
2023-02-15T20:07:27.520Z,7.60
2023-02-15T20:09:55.604Z,7.50
2023-02-15T20:12:25.963Z,7.50
2023-02-15T20:14:59.598Z,7.60
2023-02-15T20:17:27.451Z,7.60
2023-02-15T20:19:56.100Z,7.50
2023-02-15T20:22:29.046Z,7.50
2023-02-15T20:24:57.740Z,7.50
2023-02-15T20:27:26.560Z,7.60
2023-02-15T20:29:56.699Z,7.60
2023-02-15T20:32:26.825Z,7.60
2023-02-15T20:34:54.827Z,7.70
2023-02-15T20:37:28.806Z,7.70
2023-02-15T20:39:57.050Z,7.70
2023-02-15T20:42:25.003Z,7.60
2023-02-15T20:44:52.915Z,7.60
2023-02-15T20:47:20.817Z,7.50
2023-02-15T20:49:50.558Z,7.50
2023-02-15T20:52:21.511Z,7.50
2023-02-15T20:54:49.625Z,7.40
2023-02-15T20:57:17.587Z,7.40
2023-02-15T20:59:45.877Z,7.30
2023-02-15T21:02:20.451Z,7.20
2023-02-15T21:04:50.208Z,7.20
2023-02-15T21:07:20.838Z,7.20
2023-02-15T21:09:49.228Z,7.10
2023-02-15T21:12:21.085Z,7.10
2023-02-15T21:14:49.054Z,7.10
2023-02-15T21:17:18.109Z,7.10
2023-02-15T21:19:46.190Z,7.00
2023-02-15T21:22:17.453Z,6.90
2023-02-15T21:24:51.381Z,6.90
2023-02-15T21:27:19.481Z,6.90
2023-02-15T21:29:47.648Z,6.90
2023-02-15T21:32:15.653Z,6.80
2023-02-15T21:34:43.583Z,6.70
2023-02-15T21:37:31.503Z,6.70
2023-02-15T21:40:00.138Z,6.70
2023-02-15T21:42:43.382Z,6.80
2023-02-15T21:45:33.558Z,6.80
2023-02-15T21:48:01.728Z,6.80
2023-02-15T21:50:47.474Z,6.80
2023-02-15T21:53:25.589Z,6.60
2023-02-15T21:55:58.256Z,6.60
2023-02-15T21:58:29.980Z,6.60
2023-02-15T22:01:00.685Z,6.60
2023-02-15T22:03:33.888Z,6.50
2023-02-15T22:06:02.184Z,6.60
2023-02-15T22:08:32.193Z,6.70
2023-02-15T22:11:00.389Z,6.70
2023-02-15T22:13:31.727Z,6.70
2023-02-15T22:16:00.346Z,6.80
2023-02-15T22:18:33.761Z,6.90
2023-02-15T22:21:04.321Z,6.90
2023-02-15T22:23:37.116Z,7.00
2023-02-15T22:26:15.339Z,7.10
2023-02-15T22:28:46.118Z,7.20
2023-02-15T22:31:19.042Z,7.20
2023-02-15T22:33:49.668Z,7.20
2023-02-15T22:36:25.123Z,7.20
2023-02-15T22:38:55.096Z,7.00
2023-02-15T22:41:28.342Z,6.90
2023-02-15T22:43:57.721Z,6.90
2023-02-15T22:46:26.944Z,6.90
2023-02-15T22:48:55.466Z,6.80
2023-02-15T22:51:25.865Z,6.70
2023-02-15T22:53:55.444Z,6.50
2023-02-15T22:56:32.284Z,6.40
2023-02-15T22:59:05.925Z,6.30
2023-02-15T23:01:38.489Z,6.30
2023-02-15T23:04:07.102Z,6.40
2023-02-15T23:06:35.372Z,6.40
2023-02-15T23:09:04.752Z,6.40
2023-02-15T23:11:32.663Z,6.20
2023-02-15T23:14:02.942Z,6.10
2023-02-15T23:16:31.761Z,6.00
2023-02-15T23:18:59.686Z,5.90
2023-02-15T23:21:31.688Z,5.90
2023-02-15T23:24:16.070Z,5.90
2023-02-15T23:26:44.120Z,6.00
2023-02-15T23:29:16.650Z,6.00
2023-02-15T23:31:48.066Z,6.10
2023-02-15T23:34:21.150Z,6.10
2023-02-15T23:36:49.125Z,6.10
2023-02-15T23:39:39.184Z,6.00
2023-02-15T23:42:12.645Z,5.80
2023-02-15T23:44:41.496Z,5.80
2023-02-15T23:47:22.031Z,5.70
2023-02-15T23:49:49.910Z,5.70
2023-02-15T23:52:17.785Z,5.60
2023-02-15T23:54:47.000Z,5.60
2023-02-15T23:57:14.922Z,5.60
2023-02-15T23:59:45.816Z,5.50
